Lorraine, NY (13659)

10:18 PM EDT on September 24, 2016 (GMT -0400)
Highland Acres | | Change Station
Active Advisory: Frost Advisory

Elev 1621 ft 43.80 °N, 75.69 °W | Updated 10 minutes ago

Clear
Clear
38.3 °F
Feels Like 38 °F
N
0.0
Wind Variable Wind from North
Gusts 0.0 mph

Today
High -- | Low -- °F
--% Chance of Precip.
Yesterday
High -- | Low -- °F
Precip. -- in
Pressure 30.22 in
Visibility 10.0 miles
Clouds Clear
Windchill 38 °F
Dew Point 37 °F
Humidity 94%
Rainfall 0.00 in
Snow Depth Not available.
6:53 AM 6:56 PM
Waning Crescent, 32% visible
METAR KART 250156Z AUTO 09003KT 10SM CLR 05/04 A3021 RMK AO2 SLP231 T00500039
Pressure 30.22 in
Visibility 10.0 miles
Clouds Clear
Windchill 38 °F
Dew Point 37 °F
Humidity 94%
Rainfall 0.00 in
Snow Depth Not available.
6:53 AM 6:56 PM
Waning Crescent, 32% visible
METAR KART 250156Z AUTO 09003KT 10SM CLR 05/04 A3021 RMK AO2 SLP231 T00500039

10-Day Weather Forecast

Almanac

Astronomy

Sep. 24, 2016 Rise Set
Actual Time
Civil Twilight
Nautical Twilight
Astronomical Twilight
Moon
Length of Visible Light
Length of Day
Tomorrow will be .
, % of the Moon is Illuminated

Today's Extremes

State Highs State Lows

Community

WunderPhotos

Upload Photos

1,941,526 photos uploaded!

WunderBlog® & News

Nearby

Air Quality

  Air Quality AQ Index Pollutant
Not available.

Snow Depth

Station Depth Elevation

Earthquake Activity

City Distance Mag. Time & Date
Minimum magnitude displayed is 2.5.

Coastal Water Temperatures

Place Temperature

Stations

Nearby Weather Stations

Station Location Temp. Windchill Dew Point Humidity Wind Precip. Elev Updated Type
                   

Watches & Warnings

Frost Advisory
Issued: 7:43 PM EDT Sep. 24, 2016 – National Weather Service

... Frost advisory remains in effect from 2 am to 9 am EDT
Sunday...

* locations... Jefferson County.

* Timing... from overnight tonight through Sunday morning.

* Temperatures... in the mid 30s away from the immediate Lake
Ontario and Saint Lawrence River shoreline.

* Impacts... potential frost damage to sensitive plants and late
season crops.

Precautionary/preparedness actions...

A frost advisory is issued when frost is expected to develop
during the growing season. If you are in the advisory area you
should take steps to protect tender vegetation. Also... potted
plants normally left outdoors should be covered or brought inside
away from the cold.




Smith